Time;durP1;ratioP1;P1;durP2;ratioP2;P2;SDS_P1;SDS_P2;PMS_P1;PMS_P2;Temp;Humidity;BMP_temperature;BMP_pressure;BME280_temperature;BME280_humidity;BME280_pressure;Samples;Min_cycle;Max_cycle;Signal;HPM_P1;HPM_P2
2022/01/12 00:00:24;;;;;;;10.07;6.20;;;6.20;79.50;;;;;;5078548;28;20049;-77
2022/01/12 00:02:50;;;;;;;8.90;5.80;;;6.20;79.50;;;;;;5071343;28;20082;-77
2022/01/12 00:05:18;;;;;;;8.60;5.65;;;6.30;79.60;;;;;;5069389;28;20062;-77
2022/01/12 00:07:46;;;;;;;10.82;6.50;;;6.20;79.70;;;;;;5070424;28;20485;-77
2022/01/12 00:10:11;;;;;;;10.00;6.65;;;6.30;80.40;;;;;;5068897;28;20016;-77
2022/01/12 00:12:37;;;;;;;13.30;6.88;;;6.30;79.70;;;;;;5070383;28;20036;-76
2022/01/12 00:15:02;;;;;;;9.40;6.32;;;6.30;79.70;;;;;;5068452;28;20107;-76
2022/01/12 00:17:28;;;;;;;13.13;7.82;;;6.20;79.50;;;;;;5069970;28;20016;-76
2022/01/12 00:19:54;;;;;;;11.88;7.40;;;6.20;79.80;;;;;;5068582;28;20028;-76
2022/01/12 00:22:19;;;;;;;9.50;5.90;;;6.10;79.80;;;;;;5061699;28;20027;-77
2022/01/12 00:33:11;;;;;;;10.07;6.57;;;6.20;80.10;;;;;;5069772;28;20089;-77
2022/01/12 00:35:48;;;;;;;8.55;5.45;;;6.20;80.20;;;;;;5065549;28;20028;-77
2022/01/12 00:38:15;;;;;;;8.50;5.68;;;6.20;80.30;;;;;;5070112;28;20031;-77
2022/01/12 00:40:45;;;;;;;10.43;6.78;;;6.20;80.30;;;;;;5062062;28;20062;-77
2022/01/12 00:43:11;;;;;;;6.57;4.78;;;6.20;80.30;;;;;;5069518;28;20491;-77
2022/01/12 00:45:41;;;;;;;10.50;7.22;;;6.20;80.30;;;;;;5068552;28;20040;-77
2022/01/12 00:48:07;;;;;;;10.75;7.18;;;6.20;80.20;;;;;;5070043;28;20034;-77
2022/01/12 00:50:33;;;;;;;10.63;7.22;;;6.30;80.30;;;;;;5068382;28;20582;-77
2022/01/12 00:52:58;;;;;;;8.88;5.97;;;6.30;80.50;;;;;;5070051;28;20037;-76
2022/01/12 00:55:24;;;;;;;11.52;7.70;;;6.30;80.50;;;;;;5068737;28;20020;-76
2022/01/12 00:57:51;;;;;;;10.07;7.15;;;6.30;80.30;;;;;;5069570;28;20441;-76
2022/01/12 01:00:17;;;;;;;8.27;5.90;;;6.30;80.40;;;;;;5067423;28;20032;-77
2022/01/12 01:02:42;;;;;;;12.25;8.65;;;6.20;80.40;;;;;;5069461;28;20028;-77
2022/01/12 01:05:08;;;;;;;11.63;7.47;;;6.10;80.30;;;;;;5060763;28;20048;-76
2022/01/12 01:07:33;;;;;;;11.38;8.05;;;6.10;80.60;;;;;;5069902;28;20487;-77
2022/01/12 01:10:08;;;;;;;12.10;8.55;;;6.00;80.70;;;;;;5067665;28;20168;-77
2022/01/12 01:12:35;;;;;;;11.65;7.75;;;5.90;80.70;;;;;;5069468;28;20016;-77
2022/01/12 01:15:07;;;;;;;11.23;8.35;;;6.00;81.10;;;;;;5067669;28;20059;-77
2022/01/12 01:25:33;;;;;;;13.48;9.70;;;5.90;81.30;;;;;;5063372;28;20047;-76
2022/01/12 01:28:01;;;;;;;12.82;8.80;;;5.90;81.20;;;;;;5069738;28;20017;-76
2022/01/12 01:30:27;;;;;;;13.07;8.52;;;5.90;81.30;;;;;;5067877;28;20056;-76
2022/01/12 01:32:53;;;;;;;12.23;8.32;;;5.80;81.40;;;;;;5068837;28;20047;-77
2022/01/12 01:35:19;;;;;;;14.85;10.57;;;5.90;81.50;;;;;;5066951;28;20039;-76
2022/01/12 01:37:45;;;;;;;13.02;8.93;;;5.90;81.40;;;;;;5066261;28;20403;-76
2022/01/12 01:40:12;;;;;;;16.00;11.40;;;5.90;81.40;;;;;;5071683;28;20020;-76
2022/01/12 01:43:07;;;;;;;13.40;9.30;;;5.80;81.40;;;;;;5071941;28;20028;-76
2022/01/12 01:53:45;;;;;;;14.60;8.73;;;5.80;82.00;;;;;;5072782;28;20039;-76
2022/01/12 01:56:12;;;;;;;12.90;8.88;;;5.80;82.00;;;;;;5068407;28;20028;-76
2022/01/12 01:58:38;;;;;;;15.38;10.23;;;5.70;82.00;;;;;;5069852;28;20028;-75
2022/01/12 02:01:04;;;;;;;18.50;11.82;;;5.70;82.00;;;;;;5072019;28;20059;-76
2022/01/12 02:03:30;;;;;;;14.32;9.35;;;5.70;82.00;;;;;;5072123;28;20471;-76
2022/01/12 02:05:59;;;;;;;22.98;14.07;;;5.70;82.10;;;;;;5070721;28;20046;-76
2022/01/12 02:08:24;;;;;;;15.30;10.63;;;5.60;82.10;;;;;;5072414;28;20015;-76
2022/01/12 02:10:54;;;;;;;21.50;13.95;;;5.50;82.40;;;;;;5071428;28;20159;-76
2022/01/12 02:13:20;;;;;;;16.92;11.88;;;5.40;82.50;;;;;;5072038;28;20028;-77
2022/01/12 02:15:47;;;;;;;16.83;11.10;;;5.40;82.80;;;;;;5070666;28;20074;-76
2022/01/12 02:40:07;;;;;;;15.10;9.05;;;5.70;82.80;;;;;;5064847;28;20044;-76
2022/01/12 02:42:33;;;;;;;13.57;9.18;;;5.80;82.80;;;;;;5069975;28;20471;-75
2022/01/12 02:55:53;;;;;;;13.63;8.25;;;6.00;82.50;;;;;;5071550;28;20102;-77
2022/01/12 02:58:19;;;;;;;13.88;9.07;;;6.10;82.40;;;;;;5063928;28;20036;-77
2022/01/12 03:03:32;;;;;;;14.35;9.02;;;6.10;82.40;;;;;;5070975;28;20102;-77
2022/01/12 03:06:04;;;;;;;14.45;8.80;;;6.10;82.40;;;;;;5061986;28;20024;-77
2022/01/12 03:08:36;;;;;;;11.63;7.70;;;6.20;82.30;;;;;;5070360;28;20032;-76
2022/01/12 03:11:06;;;;;;;14.60;8.65;;;6.20;82.40;;;;;;5063377;28;20074;-75
2022/01/12 03:13:32;;;;;;;13.23;7.43;;;6.20;82.30;;;;;;5059632;28;20024;-75
2022/01/12 03:15:58;;;;;;;15.25;9.32;;;6.30;82.30;;;;;;5071041;28;20024;-75
2022/01/12 03:18:23;;;;;;;15.15;9.35;;;6.30;82.20;;;;;;5069481;28;20052;-75
2022/01/12 03:20:49;;;;;;;15.48;10.00;;;6.30;82.20;;;;;;5067317;28;20687;-75
2022/01/12 03:23:16;;;;;;;11.77;7.85;;;6.30;82.20;;;;;;5067027;28;20071;-75
2022/01/12 03:25:42;;;;;;;14.40;8.95;;;6.40;82.20;;;;;;5086063;28;20115;-75
2022/01/12 03:28:08;;;;;;;13.75;8.35;;;6.50;82.20;;;;;;5069560;28;20098;-75
2022/01/12 03:30:41;;;;;;;9.75;6.45;;;6.50;82.10;;;;;;5070400;28;20016;-75
2022/01/12 03:33:18;;;;;;;13.60;8.73;;;6.50;82.10;;;;;;5070451;28;20112;-75
2022/01/12 03:35:50;;;;;;;12.98;9.10;;;6.60;82.00;;;;;;5069722;28;20056;-75
2022/01/12 03:38:20;;;;;;;14.70;9.23;;;6.60;81.90;;;;;;5070169;28;20100;-75
2022/01/12 03:40:46;;;;;;;9.75;6.70;;;6.60;81.80;;;;;;5068398;28;20035;-75
2022/01/12 03:43:11;;;;;;;10.77;7.25;;;6.60;81.80;;;;;;5069996;28;20032;-75
2022/01/12 03:45:37;;;;;;;12.52;8.25;;;6.50;81.80;;;;;;5070022;28;20032;-76
2022/01/12 03:48:03;;;;;;;12.32;8.70;;;6.50;81.80;;;;;;5070430;28;20024;-75
2022/01/12 03:50:29;;;;;;;11.93;7.82;;;6.50;81.90;;;;;;5069805;28;20028;-75
2022/01/12 03:52:54;;;;;;;12.15;8.45;;;6.60;82.00;;;;;;5061953;28;20032;-75
2022/01/12 03:55:20;;;;;;;9.48;6.45;;;6.60;81.90;;;;;;5070348;28;20025;-76
2022/01/12 03:57:45;;;;;;;12.15;7.88;;;6.60;81.90;;;;;;5069064;28;20483;-76
2022/01/12 04:00:11;;;;;;;10.15;7.35;;;6.60;81.80;;;;;;5067295;28;20025;-76
2022/01/12 04:02:39;;;;;;;9.27;6.70;;;6.60;81.70;;;;;;5069750;28;20214;-76
2022/01/12 04:05:23;;;;;;;12.50;8.10;;;6.60;81.70;;;;;;5069082;28;20166;-76
2022/01/12 04:10:33;;;;;;;11.00;7.63;;;6.60;82.00;;;;;;5068878;28;20059;-76
2022/01/12 04:13:00;;;;;;;11.15;8.15;;;6.60;81.70;;;;;;5069716;28;20052;-76
2022/01/12 04:15:25;;;;;;;13.48;8.63;;;6.60;81.70;;;;;;5068894;28;20223;-75
2022/01/12 04:17:51;;;;;;;11.52;8.43;;;6.70;81.70;;;;;;5069239;28;20021;-76
2022/01/12 04:20:16;;;;;;;12.00;7.68;;;6.60;81.60;;;;;;5065637;28;20529;-76
2022/01/12 04:25:26;;;;;;;12.52;8.50;;;6.60;81.70;;;;;;5079461;28;20119;-76
2022/01/12 04:27:52;;;;;;;11.27;7.63;;;6.70;81.80;;;;;;5075852;28;20111;-76
2022/01/12 04:30:18;;;;;;;12.00;8.05;;;6.70;81.80;;;;;;5069387;28;20032;-76
2022/01/12 04:32:44;;;;;;;11.88;8.35;;;6.70;81.70;;;;;;5063225;28;20028;-76
2022/01/12 04:35:10;;;;;;;12.98;8.55;;;6.70;81.60;;;;;;5067274;28;20047;-76
2022/01/12 04:37:36;;;;;;;13.23;8.40;;;6.80;81.60;;;;;;5068267;28;20025;-76
2022/01/12 04:40:04;;;;;;;13.05;8.50;;;6.70;81.60;;;;;;5068111;28;20470;-76
2022/01/12 04:42:29;;;;;;;12.05;8.55;;;6.70;81.50;;;;;;5070266;28;20043;-76
2022/01/12 04:45:03;;;;;;;12.75;8.82;;;6.70;81.50;;;;;;5069052;28;20017;-76
2022/01/12 04:47:58;;;;;;;12.75;8.95;;;6.70;81.60;;;;;;5069597;28;20025;-76
2022/01/12 04:50:26;;;;;;;14.55;9.43;;;6.80;81.60;;;;;;5063660;28;20027;-76
2022/01/12 04:52:52;;;;;;;16.40;8.88;;;6.80;81.60;;;;;;5069798;28;20020;-76
2022/01/12 04:55:18;;;;;;;11.63;8.02;;;6.70;81.50;;;;;;5064855;28;20458;-76
2022/01/12 04:57:44;;;;;;;13.57;9.30;;;6.70;81.50;;;;;;5069834;28;20416;-76
2022/01/12 05:00:16;;;;;;;12.85;8.40;;;6.70;81.50;;;;;;5068630;28;20101;-76
2022/01/12 05:13:35;;;;;;;12.40;8.98;;;6.70;81.50;;;;;;5067527;28;20109;-76
2022/01/12 05:16:01;;;;;;;11.95;8.70;;;6.70;81.50;;;;;;5072528;28;20093;-76
2022/01/12 05:18:28;;;;;;;12.45;8.65;;;6.70;81.50;;;;;;5072866;28;20025;-76
2022/01/12 05:20:53;;;;;;;10.55;7.57;;;6.70;81.40;;;;;;5068824;28;20044;-76
2022/01/12 05:23:19;;;;;;;12.00;8.63;;;6.70;81.40;;;;;;5065603;28;20020;-75
2022/01/12 05:25:47;;;;;;;12.82;8.45;;;6.70;81.40;;;;;;5079916;28;20138;-76
2022/01/12 05:28:14;;;;;;;11.77;8.82;;;6.70;81.40;;;;;;5076938;28;20051;-76
2022/01/12 05:30:40;;;;;;;11.88;8.43;;;6.70;81.40;;;;;;5086313;28;20242;-76
2022/01/12 05:33:05;;;;;;;13.55;9.38;;;6.70;81.50;;;;;;5072819;28;20137;-76
2022/01/12 05:35:33;;;;;;;11.93;8.15;;;6.80;81.60;;;;;;5071831;28;20035;-76
2022/01/12 05:38:00;;;;;;;11.88;8.15;;;6.80;81.40;;;;;;5073234;28;20029;-76
2022/01/12 05:40:26;;;;;;;14.32;9.15;;;6.80;81.40;;;;;;5072013;28;20021;-76
2022/01/12 05:42:53;;;;;;;16.05;9.82;;;6.80;81.40;;;;;;5072786;28;20021;-77
2022/01/12 05:45:20;;;;;;;10.93;7.45;;;6.80;81.40;;;;;;5070213;28;20033;-77
2022/01/12 05:50:16;;;;;;;10.55;7.57;;;6.70;81.50;;;;;;5070925;28;20070;-77
2022/01/12 05:52:42;;;;;;;12.15;7.88;;;6.80;81.50;;;;;;5073215;28;20040;-78
2022/01/12 05:55:09;;;;;;;13.93;9.07;;;6.80;81.50;;;;;;5067128;28;20019;-78
2022/01/12 05:57:36;;;;;;;15.68;8.85;;;6.80;81.50;;;;;;5057632;28;20036;-78
2022/01/12 06:00:06;;;;;;;13.95;8.35;;;6.90;81.50;;;;;;5065760;28;20099;-78
2022/01/12 06:02:32;;;;;;;13.38;8.48;;;6.90;81.30;;;;;;5069083;28;20089;-78
2022/01/12 06:04:57;;;;;;;13.02;8.27;;;6.90;81.30;;;;;;5071715;28;20070;-77
2022/01/12 06:07:23;;;;;;;12.52;8.65;;;6.90;81.30;;;;;;5070635;28;20036;-78
2022/01/12 06:09:49;;;;;;;10.55;7.35;;;6.80;81.30;;;;;;5061551;28;20025;-78
2022/01/12 06:12:14;;;;;;;12.23;7.47;;;6.90;81.50;;;;;;5065770;28;20082;-77
2022/01/12 06:14:41;;;;;;;12.13;7.85;;;6.90;81.40;;;;;;5072251;28;20772;-78
2022/01/12 06:17:07;;;;;;;12.35;8.68;;;6.90;81.40;;;;;;5071787;28;20604;-77
2022/01/12 06:19:33;;;;;;;11.88;6.90;;;6.90;81.30;;;;;;5070452;28;20016;-77
2022/01/12 06:21:59;;;;;;;12.45;7.72;;;6.80;81.30;;;;;;5081568;28;20282;-78
2022/01/12 06:24:24;;;;;;;14.23;8.57;;;6.80;81.30;;;;;;5077568;28;20032;-77
2022/01/12 06:26:50;;;;;;;12.85;8.05;;;6.80;81.50;;;;;;5071984;28;20086;-76
2022/01/12 06:31:47;;;;;;;14.85;8.10;;;6.80;81.50;;;;;;5071976;28;20029;-75
2022/01/12 06:34:13;;;;;;;11.20;7.53;;;6.80;81.60;;;;;;5064740;28;20120;-76
2022/01/12 06:36:38;;;;;;;17.60;8.98;;;6.70;81.60;;;;;;5070244;28;20104;-77
2022/01/12 06:39:10;;;;;;;17.63;8.50;;;6.80;81.60;;;;;;5074195;28;20029;-77
2022/01/12 06:41:37;;;;;;;17.30;8.25;;;6.70;81.60;;;;;;5075209;28;20147;-77
2022/01/12 06:44:03;;;;;;;17.52;8.18;;;6.60;81.50;;;;;;5078920;28;20023;-78
2022/01/12 06:46:31;;;;;;;16.70;8.63;;;6.50;81.70;;;;;;5079407;28;20020;-77
2022/01/12 06:48:57;;;;;;;14.52;9.20;;;6.50;82.00;;;;;;5079858;28;20032;-77
2022/01/12 06:51:23;;;;;;;15.90;8.93;;;6.40;82.20;;;;;;5080620;28;20624;-77
2022/01/12 06:53:49;;;;;;;13.63;8.38;;;6.40;82.30;;;;;;5077517;28;20102;-77
2022/01/12 06:56:17;;;;;;;17.65;9.40;;;6.40;82.40;;;;;;5076748;28;20074;-77
2022/01/12 06:58:44;;;;;;;17.92;9.27;;;6.40;82.30;;;;;;5078839;28;20038;-78
2022/01/12 07:01:10;;;;;;;15.32;7.97;;;6.30;82.20;;;;;;5068178;28;20016;-77
2022/01/12 07:03:35;;;;;;;17.52;8.65;;;6.30;82.40;;;;;;5067897;28;20029;-78
2022/01/12 07:06:01;;;;;;;14.68;9.00;;;6.30;82.60;;;;;;5076679;28;20032;-78
2022/01/12 07:08:27;;;;;;;20.05;8.93;;;6.30;82.60;;;;;;5083298;28;20035;-78
2022/01/12 07:10:53;;;;;;;12.05;6.90;;;6.30;82.60;;;;;;5071213;28;20020;-78
2022/01/12 07:13:19;;;;;;;18.77;11.00;;;6.20;82.70;;;;;;5070431;28;20536;-78
2022/01/12 07:15:44;;;;;;;15.30;8.25;;;6.20;82.70;;;;;;5062059;28;20032;-77
2022/01/12 07:18:11;;;;;;;12.43;7.40;;;6.10;83.40;;;;;;5066412;28;20516;-77
2022/01/12 07:20:37;;;;;;;9.45;5.40;;;6.10;82.90;;;;;;5058279;28;20532;-78
2022/01/12 07:23:03;;;;;;;15.80;8.10;;;6.10;83.00;;;;;;5083035;28;20020;-89
2022/01/12 07:25:29;;;;;;;14.02;7.75;;;6.00;83.00;;;;;;5068098;28;20020;-82
2022/01/12 07:27:55;;;;;;;15.50;7.85;;;6.00;83.20;;;;;;5066645;28;20040;-83
2022/01/12 07:30:22;;;;;;;14.75;8.43;;;6.00;83.50;;;;;;5061018;28;20454;-82
2022/01/12 07:32:48;;;;;;;15.35;8.50;;;5.90;83.10;;;;;;5068596;28;20449;-81
2022/01/12 07:35:14;;;;;;;14.25;7.43;;;6.00;83.20;;;;;;5066101;28;20107;-79
2022/01/12 07:37:39;;;;;;;15.32;7.80;;;6.00;83.30;;;;;;5066181;28;20056;-78
2022/01/12 07:40:06;;;;;;;16.42;7.55;;;6.00;83.30;;;;;;5068763;28;20024;-80
2022/01/12 07:42:31;;;;;;;15.77;8.13;;;6.00;83.30;;;;;;5070620;28;20033;-80
2022/01/12 07:45:01;;;;;;;16.55;8.38;;;5.90;83.20;;;;;;5069460;28;20028;-78
2022/01/12 07:47:29;;;;;;;17.73;8.55;;;5.90;83.20;;;;;;5070366;28;20119;-80
2022/01/12 07:49:55;;;;;;;15.50;8.38;;;5.90;83.20;;;;;;5059340;28;20021;-80
2022/01/12 07:52:22;;;;;;;14.93;7.63;;;5.90;83.30;;;;;;5057380;28;20037;-81
2022/01/12 07:54:47;;;;;;;14.65;7.78;;;5.80;83.40;;;;;;5061734;28;20028;-82
2022/01/12 07:57:13;;;;;;;13.25;7.20;;;5.80;84.10;;;;;;5068712;28;20032;-81
2022/01/12 07:59:39;;;;;;;14.90;7.47;;;5.80;83.50;;;;;;5060735;28;20502;-80
2022/01/12 08:02:04;;;;;;;18.60;9.13;;;5.70;83.60;;;;;;5065023;28;20024;-81
2022/01/12 08:04:30;;;;;;;17.40;8.07;;;5.70;83.70;;;;;;5071533;28;20421;-81
2022/01/12 08:06:56;;;;;;;14.45;7.47;;;5.80;83.90;;;;;;5066870;28;20139;-79
2022/01/12 08:09:22;;;;;;;17.67;9.13;;;5.80;83.80;;;;;;5064875;28;20017;-79
2022/01/12 08:11:48;;;;;;;17.92;8.68;;;5.80;83.70;;;;;;5064759;28;20055;-80
2022/01/12 08:14:15;;;;;;;17.90;8.63;;;5.80;83.70;;;;;;5064807;28;20021;-80
2022/01/12 08:16:41;;;;;;;19.20;9.48;;;5.80;83.70;;;;;;5061317;28;20028;-80
2022/01/12 08:19:07;;;;;;;19.58;9.32;;;5.80;83.60;;;;;;5067042;28;20056;-79
2022/01/12 08:21:32;;;;;;;17.25;8.98;;;5.80;83.60;;;;;;5062097;28;20082;-79
2022/01/12 08:23:58;;;;;;;18.92;9.25;;;5.80;83.50;;;;;;5082292;28;20025;-79
2022/01/12 08:26:23;;;;;;;17.20;8.57;;;5.80;83.50;;;;;;5061311;28;20072;-78
2022/01/12 08:28:49;;;;;;;22.40;10.13;;;5.90;83.60;;;;;;5055179;28;20024;-78
2022/01/12 08:31:14;;;;;;;20.33;10.00;;;5.90;83.60;;;;;;5062462;28;20039;-80
2022/01/12 08:33:40;;;;;;;21.88;10.32;;;5.80;83.50;;;;;;5066411;28;20115;-79
2022/01/12 08:36:06;;;;;;;24.35;11.32;;;5.80;83.60;;;;;;5056356;28;20024;-80
2022/01/12 08:38:31;;;;;;;18.25;9.30;;;5.80;84.20;;;;;;5065248;28;20025;-80
2022/01/12 08:40:57;;;;;;;21.17;11.20;;;5.80;83.60;;;;;;5066446;28;20028;-81
2022/01/12 08:43:22;;;;;;;23.65;12.05;;;5.70;83.70;;;;;;5069197;28;20091;-80
2022/01/12 08:45:51;;;;;;;23.35;13.18;;;5.70;84.00;;;;;;5058930;28;20044;-79
2022/01/12 08:48:16;;;;;;;21.00;11.38;;;5.60;84.10;;;;;;5061655;28;20033;-80
2022/01/12 08:50:42;;;;;;;17.40;8.68;;;5.60;84.40;;;;;;5064178;28;20054;-80
2022/01/12 08:53:10;;;;;;;19.27;9.32;;;5.60;84.50;;;;;;5065797;28;20448;-78
2022/01/12 08:55:35;;;;;;;15.50;8.27;;;5.70;84.40;;;;;;5059214;28;20029;-79
2022/01/12 08:58:01;;;;;;;15.57;7.78;;;5.70;84.30;;;;;;5053881;28;20112;-79
2022/01/12 09:00:27;;;;;;;20.67;10.35;;;5.80;84.20;;;;;;5061087;28;20028;-81
2022/01/12 09:02:52;;;;;;;18.45;9.77;;;5.80;84.10;;;;;;5054010;28;20036;-79
2022/01/12 09:05:18;;;;;;;18.42;8.95;;;5.80;84.10;;;;;;5063274;28;20064;-78
2022/01/12 09:07:43;;;;;;;16.70;8.98;;;5.80;84.00;;;;;;5065912;28;20036;-78
2022/01/12 09:10:10;;;;;;;13.75;7.63;;;5.90;84.10;;;;;;5068813;28;20024;-78
2022/01/12 09:12:36;;;;;;;15.30;7.82;;;5.90;84.00;;;;;;5064559;28;20021;-79
2022/01/12 09:15:07;;;;;;;15.73;8.10;;;5.90;83.90;;;;;;5067977;28;20016;-78
2022/01/12 09:17:33;;;;;;;14.35;7.45;;;5.90;83.90;;;;;;5054297;28;20073;-78
2022/01/12 09:19:59;;;;;;;19.02;9.80;;;5.90;83.90;;;;;;5049224;28;20116;-78
2022/01/12 09:22:24;;;;;;;17.42;9.63;;;5.90;84.50;;;;;;5065472;28;20028;-78
2022/01/12 09:24:50;;;;;;;18.27;9.27;;;5.90;83.90;;;;;;5068046;28;20601;-79
2022/01/12 09:27:17;;;;;;;18.35;10.52;;;5.90;83.90;;;;;;5058957;28;20507;-79
2022/01/12 09:29:43;;;;;;;20.52;10.70;;;5.90;83.80;;;;;;5057763;28;20395;-79
2022/01/12 09:32:09;;;;;;;16.67;8.43;;;5.80;83.70;;;;;;5067932;28;20390;-79
2022/01/12 09:34:37;;;;;;;16.48;9.05;;;5.80;83.90;;;;;;5074316;28;20021;-79
2022/01/12 09:37:03;;;;;;;17.40;9.00;;;5.80;83.90;;;;;;5067613;28;20023;-79
2022/01/12 09:39:29;;;;;;;16.85;8.93;;;5.80;84.50;;;;;;5067852;28;20020;-79
2022/01/12 09:41:56;;;;;;;18.17;8.65;;;5.80;83.90;;;;;;5069356;28;20070;-78
2022/01/12 09:44:38;;;;;;;15.35;8.15;;;5.90;83.90;;;;;;5069357;28;20028;-79
2022/01/12 09:47:05;;;;;;;20.65;9.45;;;5.90;83.80;;;;;;5072566;28;20093;-79
2022/01/12 09:49:32;;;;;;;16.77;9.52;;;5.80;83.70;;;;;;5068038;28;20040;-77
2022/01/12 09:51:59;;;;;;;17.20;9.68;;;5.90;83.80;;;;;;5064164;28;20469;-79
2022/01/12 09:54:26;;;;;;;17.95;8.80;;;5.90;83.70;;;;;;5068885;28;20475;-78
2022/01/12 09:56:52;;;;;;;18.75;8.63;;;5.90;83.70;;;;;;5077293;28;20013;-79
2022/01/12 09:59:17;;;;;;;16.00;8.10;;;5.90;83.60;;;;;;5072642;28;20028;-80
2022/01/12 10:01:45;;;;;;;14.68;7.38;;;5.90;83.70;;;;;;5077359;28;20036;-79
2022/01/12 10:04:16;;;;;;;13.13;7.40;;;5.90;83.70;;;;;;5072539;28;20494;-79
2022/01/12 10:06:50;;;;;;;15.70;7.53;;;5.90;83.70;;;;;;5073568;28;20041;-80
2022/01/12 10:09:17;;;;;;;17.15;8.45;;;5.90;83.60;;;;;;5067105;28;20509;-79
2022/01/12 10:11:57;;;;;;;17.10;8.45;;;5.90;83.60;;;;;;5077155;28;20036;-79
2022/01/12 10:14:24;;;;;;;16.27;7.82;;;6.00;83.60;;;;;;5077652;28;20028;-77
2022/01/12 10:16:59;;;;;;;17.98;8.68;;;6.00;83.60;;;;;;5074695;28;20481;-77
2022/01/12 10:19:30;;;;;;;17.40;8.43;;;6.00;83.60;;;;;;5067401;28;20032;-79
2022/01/12 10:21:58;;;;;;;16.80;8.75;;;6.10;83.60;;;;;;5069507;28;20081;-81
2022/01/12 10:24:25;;;;;;;21.20;9.93;;;6.10;83.50;;;;;;5068136;28;20032;-79
2022/01/12 10:26:51;;;;;;;15.57;7.75;;;6.10;83.40;;;;;;5064002;28;20101;-78
2022/01/12 10:29:35;;;;;;;13.25;7.60;;;6.10;83.50;;;;;;5072666;28;20059;-77
2022/01/12 10:32:04;;;;;;;17.42;8.20;;;6.10;83.50;;;;;;5076338;28;20032;-78
2022/01/12 10:34:41;;;;;;;16.48;8.50;;;6.10;83.50;;;;;;5069420;28;20016;-80
2022/01/12 10:37:09;;;;;;;14.52;7.45;;;6.10;83.50;;;;;;5065550;28;20027;-79
2022/01/12 10:39:42;;;;;;;17.77;8.52;;;6.10;83.40;;;;;;5065701;28;20032;-79
2022/01/12 10:42:10;;;;;;;15.18;8.20;;;6.00;83.40;;;;;;5072507;28;20519;-78
2022/01/12 10:44:40;;;;;;;16.25;8.73;;;5.90;83.40;;;;;;5055111;28;20040;-82
2022/01/12 10:47:18;;;;;;;17.85;9.25;;;6.00;83.50;;;;;;5064152;28;20047;-81
2022/01/12 10:49:56;;;;;;;23.30;12.35;;;5.90;83.40;;;;;;5075069;28;20065;-81
2022/01/12 10:52:29;;;;;;;18.98;9.68;;;5.90;83.60;;;;;;5063902;28;20029;-79
2022/01/12 10:55:05;;;;;;;16.75;9.30;;;5.90;83.80;;;;;;5065551;28;20021;-80
2022/01/12 10:57:40;;;;;;;14.98;7.65;;;6.00;83.90;;;;;;5064131;28;20032;-77
2022/01/12 11:00:22;;;;;;;16.85;8.68;;;6.10;83.80;;;;;;5064022;28;20017;-77
2022/01/12 11:02:54;;;;;;;15.20;8.05;;;6.10;83.70;;;;;;5058284;28;20471;-79
2022/01/12 11:05:22;;;;;;;14.80;8.18;;;6.10;83.60;;;;;;5064746;28;20052;-78
2022/01/12 11:07:48;;;;;;;14.70;7.45;;;6.10;83.40;;;;;;5062629;28;20048;-78
2022/01/12 11:10:14;;;;;;;15.38;7.55;;;6.10;83.40;;;;;;5055221;28;20028;-79
2022/01/12 11:12:41;;;;;;;11.15;5.45;;;6.20;83.40;;;;;;5068456;28;20028;-81
2022/01/12 11:15:09;;;;;;;17.23;7.60;;;6.20;83.30;;;;;;5065104;28;20419;-78
2022/01/12 11:17:34;;;;;;;16.13;7.88;;;6.10;83.20;;;;;;5059902;28;20056;-79
2022/01/12 11:20:09;;;;;;;19.83;9.55;;;6.10;83.20;;;;;;5068148;28;20461;-78
2022/01/12 11:22:47;;;;;;;20.20;10.75;;;6.00;83.30;;;;;;5075420;28;20081;-78
2022/01/12 11:25:18;;;;;;;16.45;8.73;;;5.80;83.50;;;;;;5058667;28;20044;-77
2022/01/12 11:27:44;;;;;;;14.57;7.70;;;5.80;83.80;;;;;;5060153;28;20041;-79
2022/01/12 11:30:24;;;;;;;21.65;10.85;;;5.80;83.90;;;;;;5065357;28;20471;-79
2022/01/12 11:32:58;;;;;;;16.10;7.90;;;5.80;84.40;;;;;;5062098;28;20094;-80
2022/01/12 11:35:33;;;;;;;17.88;8.98;;;5.80;84.10;;;;;;5056864;28;20040;-80
2022/01/12 11:38:00;;;;;;;19.13;9.38;;;5.90;84.10;;;;;;5063496;28;20491;-79
2022/01/12 11:40:36;;;;;;;17.52;8.45;;;5.80;84.10;;;;;;5060716;28;20082;-80
2022/01/12 11:43:02;;;;;;;20.42;9.40;;;6.00;84.20;;;;;;5057022;28;20025;-81
2022/01/12 11:45:28;;;;;;;12.68;6.47;;;6.00;84.00;;;;;;5068362;28;20123;-80
2022/01/12 11:47:54;;;;;;;18.35;8.60;;;6.10;83.90;;;;;;5063518;28;20024;-80
2022/01/12 11:50:19;;;;;;;16.85;8.48;;;6.10;83.80;;;;;;5068508;28;20468;-82
2022/01/12 11:52:46;;;;;;;16.45;7.85;;;6.20;83.80;;;;;;5063457;28;20038;-85
2022/01/12 11:55:14;;;;;;;13.32;6.93;;;6.20;83.80;;;;;;5062446;28;20482;-80
2022/01/12 11:57:45;;;;;;;13.52;6.53;;;6.30;83.70;;;;;;5066636;28;20035;-80
2022/01/12 12:00:12;;;;;;;15.77;7.53;;;6.30;83.50;;;;;;5060826;28;20048;-80
2022/01/12 12:02:43;;;;;;;16.58;8.27;;;6.40;83.50;;;;;;5054848;28;20031;-79
2022/01/12 12:05:17;;;;;;;14.05;6.95;;;6.40;83.40;;;;;;5061967;28;20390;-78
2022/01/12 12:07:49;;;;;;;13.60;6.93;;;6.40;83.40;;;;;;5060354;28;20562;-78
2022/01/12 12:10:17;;;;;;;14.18;7.57;;;6.40;83.20;;;;;;5060709;28;20024;-77
2022/01/12 12:12:43;;;;;;;13.57;6.05;;;6.40;83.20;;;;;;5068157;28;20506;-78
2022/01/12 12:15:11;;;;;;;15.63;7.68;;;6.50;83.20;;;;;;5062067;28;20016;-78
2022/01/12 12:17:39;;;;;;;19.42;8.23;;;6.40;83.20;;;;;;5075993;28;20111;-78
2022/01/12 12:20:08;;;;;;;16.92;7.43;;;6.40;83.20;;;;;;5077251;28;20099;-81
2022/01/12 12:22:37;;;;;;;17.65;7.43;;;6.40;83.20;;;;;;5077105;28;20029;-78
2022/01/12 12:25:23;;;;;;;15.32;6.82;;;6.50;83.10;;;;;;5064296;28;20016;-80
2022/01/12 12:27:54;;;;;;;16.42;8.32;;;6.50;83.10;;;;;;5070708;28;20040;-79
2022/01/12 12:30:22;;;;;;;20.02;10.07;;;6.40;83.20;;;;;;5069898;28;20020;-78
2022/01/12 12:32:53;;;;;;;25.33;10.75;;;6.40;83.10;;;;;;5077606;28;20381;-78
2022/01/12 12:35:24;;;;;;;20.85;9.70;;;6.30;83.00;;;;;;5059295;28;20033;-78
2022/01/12 12:37:55;;;;;;;20.00;9.60;;;6.30;83.10;;;;;;5061505;28;20029;-78
2022/01/12 12:40:21;;;;;;;16.25;8.32;;;6.40;83.10;;;;;;5064093;28;20035;-79
2022/01/12 12:43:18;;;;;;;19.25;8.52;;;6.30;83.00;;;;;;5061763;28;20036;-79
2022/01/12 12:45:45;;;;;;;20.23;9.77;;;6.40;83.00;;;;;;5063836;28;20037;-78
2022/01/12 12:48:14;;;;;;;16.70;7.95;;;6.40;83.00;;;;;;5055779;28;20691;-78
2022/01/12 12:50:40;;;;;;;16.67;8.50;;;6.40;82.90;;;;;;5066426;28;20120;-78
2022/01/12 12:53:06;;;;;;;23.33;11.30;;;6.40;82.80;;;;;;5063299;28;20028;-79
2022/01/12 12:55:40;;;;;;;14.55;7.60;;;6.30;82.80;;;;;;5061616;28;20082;-79
2022/01/12 12:58:06;;;;;;;16.70;7.85;;;6.30;83.00;;;;;;5065317;28;20031;-78
2022/01/12 13:00:33;;;;;;;19.40;8.82;;;6.20;83.00;;;;;;5063199;28;20447;-78
2022/01/12 13:03:00;;;;;;;21.33;10.95;;;6.30;83.10;;;;;;5065268;28;20467;-78
2022/01/12 13:05:29;;;;;;;20.52;9.20;;;6.40;83.00;;;;;;5063701;28;20028;-78
2022/01/12 13:07:55;;;;;;;21.08;10.00;;;6.30;83.00;;;;;;5055524;28;20028;-79
2022/01/12 13:10:23;;;;;;;20.67;9.98;;;6.30;82.90;;;;;;5066541;28;20039;-77
2022/01/12 13:12:54;;;;;;;22.05;10.35;;;6.30;83.00;;;;;;5059962;28;20025;-78
2022/01/12 13:15:32;;;;;;;19.77;8.65;;;6.30;83.10;;;;;;5056836;28;20662;-80
2022/01/12 13:18:19;;;;;;;21.95;10.32;;;6.40;83.10;;;;;;5065860;28;20527;-79
2022/01/12 13:23:43;;;;;;;16.05;7.97;;;6.40;83.00;;;;;;5069918;28;20066;-79
2022/01/12 13:26:12;;;;;;;15.07;8.10;;;6.40;82.90;;;;;;5051144;28;20033;-80
2022/01/12 13:28:41;;;;;;;15.60;8.15;;;6.40;82.80;;;;;;5062673;28;20035;-79
2022/01/12 13:31:09;;;;;;;16.52;8.02;;;6.40;82.70;;;;;;5067164;28;20056;-78
2022/01/12 13:33:38;;;;;;;23.80;10.02;;;6.50;82.80;;;;;;5067902;28;20025;-78
2022/01/12 13:36:11;;;;;;;14.30;7.40;;;6.50;82.70;;;;;;5068404;28;20026;-79
2022/01/12 13:38:36;;;;;;;14.20;7.95;;;6.50;82.80;;;;;;5066652;28;20035;-79
2022/01/12 13:41:11;;;;;;;16.35;8.73;;;6.50;82.70;;;;;;5069877;28;20020;-80
2022/01/12 13:43:39;;;;;;;18.77;9.48;;;6.50;82.70;;;;;;5062861;28;20031;-78
2022/01/12 13:46:15;;;;;;;15.20;8.18;;;6.50;82.70;;;;;;5063367;28;20021;-78
2022/01/12 13:49:03;;;;;;;17.00;8.15;;;6.60;82.70;;;;;;5063327;28;20377;-79
2022/01/12 13:51:36;;;;;;;14.35;7.45;;;6.60;82.60;;;;;;5060743;28;20021;-79
2022/01/12 13:54:09;;;;;;;16.25;7.60;;;6.60;82.60;;;;;;5060376;28;20075;-79
2022/01/12 13:56:44;;;;;;;14.38;7.57;;;6.60;82.60;;;;;;5065838;28;20094;-80
2022/01/12 13:59:12;;;;;;;13.75;7.97;;;6.60;82.60;;;;;;5067857;28;20043;-80
2022/01/12 14:01:39;;;;;;;15.00;8.00;;;6.60;82.60;;;;;;5066514;28;20522;-81
2022/01/12 14:04:10;;;;;;;16.75;7.88;;;6.70;82.70;;;;;;5066021;28;20024;-81
2022/01/12 14:06:39;;;;;;;14.57;7.20;;;6.70;82.60;;;;;;5066599;28;20642;-80
2022/01/12 14:09:27;;;;;;;14.40;6.63;;;6.70;82.50;;;;;;5070368;28;20024;-80
2022/01/12 14:11:53;;;;;;;18.15;7.43;;;6.70;82.50;;;;;;5068450;28;20020;-81
2022/01/12 14:14:20;;;;;;;16.10;7.72;;;6.60;82.40;;;;;;5056604;28;20017;-79